ENAL/AES METAR and TAF weather

Enter ICAO airport designator
Station Type Date Time Source
ENAL METAR 2019/06/26 22:50 UTC NOAA

ENAL 262250Z AUTO 24004KT 9999 FEW028/// SCT035/// BKN044/// 10/09 Q1025


Station Type Date Time Source
ENAL Decoded METAR 2019/06/26 22:50 UTC NOAA

Alesund / Vigra, Norway (ENAL) 62-34N 006-07E 22M
Jun 26, 2019 - 06:50 PM EDT / 2019.06.26 2250 UTC
Wind: from the WSW (240 degrees) at 5 MPH (4 KT):0
Visibility: greater than 7 mile(s):0
Sky conditions: mostly cloudy
Temperature: 50 F (10 C)
Dew Point: 48 F (9 C)
Relative Humidity: 93%
Pressure (altimeter): 30.27 in. Hg (1025 hPa)
ob: ENAL 262250Z AUTO 24004KT 9999 FEW028/// SCT035/// BKN044/// 10/09 Q1025
cycle: 23

Station Type Date Time Source
ENAL TAF UTC NOAA

Error!

Example: see airport list